sensor_id;sensor_type;location;lat;lon;timestamp;P1;durP1;ratioP1;P2;durP2;ratioP2
48596;SDS011;34382;43.160;24.148;2023-05-29T00:00:31;11.88;;;4.15;;
48596;SDS011;34382;43.160;24.148;2023-05-29T00:05:15;10.73;;;4.03;;
48596;SDS011;34382;43.160;24.148;2023-05-29T00:06:48;12.95;;;4.30;;
48596;SDS011;34382;43.160;24.148;2023-05-29T00:08:21;13.25;;;4.28;;
48596;SDS011;34382;43.160;24.148;2023-05-29T00:09:53;11.50;;;4.15;;
48596;SDS011;34382;43.160;24.148;2023-05-29T00:11:26;9.45;;;4.22;;
48596;SDS011;34382;43.160;24.148;2023-05-29T00:12:58;10.60;;;3.90;;
48596;SDS011;34382;43.160;24.148;2023-05-29T00:14:32;13.05;;;4.43;;
48596;SDS011;34382;43.160;24.148;2023-05-29T00:16:05;10.77;;;4.60;;
48596;SDS011;34382;43.160;24.148;2023-05-29T00:17:38;9.05;;;4.05;;
48596;SDS011;34382;43.160;24.148;2023-05-29T00:19:12;8.63;;;4.05;;
48596;SDS011;34382;43.160;24.148;2023-05-29T00:20:45;13.88;;;4.60;;
48596;SDS011;34382;43.160;24.148;2023-05-29T00:22:18;11.80;;;4.45;;
48596;SDS011;34382;43.160;24.148;2023-05-29T00:23:51;10.13;;;4.45;;
48596;SDS011;34382;43.160;24.148;2023-05-29T00:25:23;12.80;;;4.35;;
48596;SDS011;34382;43.160;24.148;2023-05-29T00:26:56;10.90;;;4.15;;
48596;SDS011;34382;43.160;24.148;2023-05-29T00:28:31;8.98;;;4.38;;
48596;SDS011;34382;43.160;24.148;2023-05-29T00:30:04;9.55;;;3.97;;
48596;SDS011;34382;43.160;24.148;2023-05-29T00:31:37;8.40;;;4.10;;
48596;SDS011;34382;43.160;24.148;2023-05-29T00:34:46;12.35;;;5.15;;
48596;SDS011;34382;43.160;24.148;2023-05-29T00:36:19;17.35;;;4.85;;
48596;SDS011;34382;43.160;24.148;2023-05-29T00:37:52;10.52;;;4.38;;
48596;SDS011;34382;43.160;24.148;2023-05-29T00:39:24;11.90;;;4.47;;
48596;SDS011;34382;43.160;24.148;2023-05-29T00:40:57;10.77;;;4.67;;
48596;SDS011;34382;43.160;24.148;2023-05-29T00:42:30;11.77;;;4.25;;
48596;SDS011;34382;43.160;24.148;2023-05-29T00:44:03;11.75;;;5.07;;
48596;SDS011;34382;43.160;24.148;2023-05-29T00:45:36;9.55;;;4.35;;
48596;SDS011;34382;43.160;24.148;2023-05-29T00:47:08;11.35;;;4.70;;
48596;SDS011;34382;43.160;24.148;2023-05-29T00:48:44;9.50;;;4.13;;
48596;SDS011;34382;43.160;24.148;2023-05-29T00:50:16;9.32;;;4.10;;
48596;SDS011;34382;43.160;24.148;2023-05-29T00:51:49;10.23;;;4.40;;
48596;SDS011;34382;43.160;24.148;2023-05-29T00:53:23;11.73;;;4.70;;
48596;SDS011;34382;43.160;24.148;2023-05-29T00:56:29;9.18;;;4.38;;
48596;SDS011;34382;43.160;24.148;2023-05-29T00:58:02;9.10;;;4.00;;
48596;SDS011;34382;43.160;24.148;2023-05-29T01:01:08;12.63;;;5.05;;
48596;SDS011;34382;43.160;24.148;2023-05-29T01:02:42;13.23;;;4.65;;
48596;SDS011;34382;43.160;24.148;2023-05-29T01:04:17;9.05;;;4.28;;
48596;SDS011;34382;43.160;24.148;2023-05-29T01:05:49;10.35;;;3.90;;
48596;SDS011;34382;43.160;24.148;2023-05-29T01:07:25;10.48;;;4.60;;
48596;SDS011;34382;43.160;24.148;2023-05-29T01:08:58;9.55;;;4.25;;
48596;SDS011;34382;43.160;24.148;2023-05-29T01:10:31;10.05;;;4.43;;
48596;SDS011;34382;43.160;24.148;2023-05-29T01:12:08;8.75;;;4.30;;
48596;SDS011;34382;43.160;24.148;2023-05-29T01:13:49;8.95;;;3.67;;
48596;SDS011;34382;43.160;24.148;2023-05-29T01:17:51;13.80;;;4.15;;
48596;SDS011;34382;43.160;24.148;2023-05-29T01:20:52;10.47;;;4.83;;
48596;SDS011;34382;43.160;24.148;2023-05-29T01:24:14;13.07;;;5.07;;
48596;SDS011;34382;43.160;24.148;2023-05-29T01:26:07;10.32;;;4.90;;
48596;SDS011;34382;43.160;24.148;2023-05-29T01:27:52;11.25;;;4.68;;
48596;SDS011;34382;43.160;24.148;2023-05-29T01:29:26;12.30;;;4.40;;
48596;SDS011;34382;43.160;24.148;2023-05-29T01:31:00;9.10;;;4.25;;
48596;SDS011;34382;43.160;24.148;2023-05-29T01:34:11;10.20;;;4.45;;
48596;SDS011;34382;43.160;24.148;2023-05-29T01:35:44;8.68;;;4.32;;
48596;SDS011;34382;43.160;24.148;2023-05-29T01:37:16;11.52;;;4.65;;
48596;SDS011;34382;43.160;24.148;2023-05-29T01:38:49;9.60;;;4.30;;
48596;SDS011;34382;43.160;24.148;2023-05-29T01:40:23;8.52;;;4.18;;
48596;SDS011;34382;43.160;24.148;2023-05-29T01:41:55;8.85;;;4.07;;
48596;SDS011;34382;43.160;24.148;2023-05-29T01:43:28;9.50;;;4.40;;
48596;SDS011;34382;43.160;24.148;2023-05-29T01:45:01;10.52;;;4.68;;
48596;SDS011;34382;43.160;24.148;2023-05-29T01:46:36;10.00;;;4.50;;
48596;SDS011;34382;43.160;24.148;2023-05-29T01:48:09;9.82;;;4.10;;
48596;SDS011;34382;43.160;24.148;2023-05-29T01:49:42;11.10;;;4.13;;
48596;SDS011;34382;43.160;24.148;2023-05-29T01:51:15;11.13;;;4.60;;
48596;SDS011;34382;43.160;24.148;2023-05-29T01:52:48;10.73;;;4.47;;
48596;SDS011;34382;43.160;24.148;2023-05-29T01:54:20;10.50;;;4.50;;
48596;SDS011;34382;43.160;24.148;2023-05-29T01:55:53;10.93;;;4.90;;
48596;SDS011;34382;43.160;24.148;2023-05-29T01:57:26;11.93;;;4.53;;
48596;SDS011;34382;43.160;24.148;2023-05-29T01:58:58;9.93;;;4.25;;
48596;SDS011;34382;43.160;24.148;2023-05-29T02:00:33;10.35;;;4.55;;
48596;SDS011;34382;43.160;24.148;2023-05-29T02:02:06;12.70;;;4.85;;
48596;SDS011;34382;43.160;24.148;2023-05-29T02:03:39;10.63;;;4.68;;
48596;SDS011;34382;43.160;24.148;2023-05-29T02:05:12;13.13;;;4.68;;
48596;SDS011;34382;43.160;24.148;2023-05-29T02:06:44;9.98;;;4.60;;
48596;SDS011;34382;43.160;24.148;2023-05-29T02:08:17;13.18;;;4.70;;
48596;SDS011;34382;43.160;24.148;2023-05-29T02:09:49;14.05;;;5.32;;
48596;SDS011;34382;43.160;24.148;2023-05-29T02:11:22;9.68;;;4.32;;
48596;SDS011;34382;43.160;24.148;2023-05-29T02:12:54;10.98;;;5.13;;
48596;SDS011;34382;43.160;24.148;2023-05-29T02:14:27;9.23;;;4.25;;
48596;SDS011;34382;43.160;24.148;2023-05-29T02:16:00;9.60;;;4.43;;
48596;SDS011;34382;43.160;24.148;2023-05-29T02:17:33;8.10;;;4.30;;
48596;SDS011;34382;43.160;24.148;2023-05-29T02:20:38;9.82;;;4.80;;
48596;SDS011;34382;43.160;24.148;2023-05-29T02:22:12;11.15;;;4.55;;
48596;SDS011;34382;43.160;24.148;2023-05-29T02:23:44;8.30;;;4.32;;
48596;SDS011;34382;43.160;24.148;2023-05-29T02:25:17;10.30;;;4.30;;
48596;SDS011;34382;43.160;24.148;2023-05-29T02:26:49;12.03;;;4.77;;
48596;SDS011;34382;43.160;24.148;2023-05-29T02:28:22;10.55;;;4.88;;
48596;SDS011;34382;43.160;24.148;2023-05-29T02:29:55;9.52;;;4.18;;
48596;SDS011;34382;43.160;24.148;2023-05-29T02:31:27;11.60;;;4.60;;
48596;SDS011;34382;43.160;24.148;2023-05-29T02:33:00;9.20;;;3.93;;
48596;SDS011;34382;43.160;24.148;2023-05-29T02:34:32;9.15;;;3.83;;
48596;SDS011;34382;43.160;24.148;2023-05-29T02:36:05;8.88;;;4.00;;
48596;SDS011;34382;43.160;24.148;2023-05-29T02:37:41;8.80;;;3.65;;
48596;SDS011;34382;43.160;24.148;2023-05-29T02:39:15;10.35;;;4.00;;
48596;SDS011;34382;43.160;24.148;2023-05-29T02:40:48;7.60;;;3.55;;
48596;SDS011;34382;43.160;24.148;2023-05-29T02:42:20;8.35;;;3.63;;
48596;SDS011;34382;43.160;24.148;2023-05-29T02:43:56;7.20;;;3.25;;
48596;SDS011;34382;43.160;24.148;2023-05-29T02:45:28;7.40;;;3.40;;
48596;SDS011;34382;43.160;24.148;2023-05-29T02:47:01;8.80;;;3.70;;
48596;SDS011;34382;43.160;24.148;2023-05-29T02:48:33;8.95;;;3.70;;
48596;SDS011;34382;43.160;24.148;2023-05-29T02:50:06;9.45;;;4.03;;
48596;SDS011;34382;43.160;24.148;2023-05-29T02:51:40;7.55;;;3.78;;
48596;SDS011;34382;43.160;24.148;2023-05-29T02:53:12;8.20;;;3.97;;
48596;SDS011;34382;43.160;24.148;2023-05-29T02:54:45;8.00;;;4.00;;
48596;SDS011;34382;43.160;24.148;2023-05-29T02:56:18;8.25;;;3.83;;
48596;SDS011;34382;43.160;24.148;2023-05-29T02:57:55;9.38;;;3.78;;
48596;SDS011;34382;43.160;24.148;2023-05-29T02:59:28;11.57;;;4.20;;
48596;SDS011;34382;43.160;24.148;2023-05-29T03:01:01;10.65;;;4.60;;
48596;SDS011;34382;43.160;24.148;2023-05-29T03:02:34;9.77;;;4.35;;
48596;SDS011;34382;43.160;24.148;2023-05-29T03:04:08;10.05;;;4.50;;
48596;SDS011;34382;43.160;24.148;2023-05-29T03:05:41;10.05;;;4.38;;
48596;SDS011;34382;43.160;24.148;2023-05-29T03:07:14;11.15;;;4.63;;
48596;SDS011;34382;43.160;24.148;2023-05-29T03:08:46;9.13;;;4.53;;
48596;SDS011;34382;43.160;24.148;2023-05-29T03:10:20;9.57;;;4.55;;
48596;SDS011;34382;43.160;24.148;2023-05-29T03:11:52;9.98;;;4.47;;
48596;SDS011;34382;43.160;24.148;2023-05-29T03:13:25;8.77;;;4.63;;
48596;SDS011;34382;43.160;24.148;2023-05-29T03:14:57;11.47;;;5.13;;
48596;SDS011;34382;43.160;24.148;2023-05-29T03:16:30;11.77;;;5.03;;
48596;SDS011;34382;43.160;24.148;2023-05-29T03:18:03;12.88;;;5.30;;
48596;SDS011;34382;43.160;24.148;2023-05-29T03:19:36;17.33;;;5.28;;
48596;SDS011;34382;43.160;24.148;2023-05-29T03:21:10;11.90;;;4.70;;
48596;SDS011;34382;43.160;24.148;2023-05-29T03:22:43;10.68;;;5.22;;
48596;SDS011;34382;43.160;24.148;2023-05-29T03:24:15;9.20;;;4.60;;
48596;SDS011;34382;43.160;24.148;2023-05-29T03:25:48;10.23;;;4.57;;
48596;SDS011;34382;43.160;24.148;2023-05-29T03:27:20;9.80;;;4.70;;
48596;SDS011;34382;43.160;24.148;2023-05-29T03:28:53;7.88;;;4.40;;
48596;SDS011;34382;43.160;24.148;2023-05-29T03:30:25;9.85;;;5.10;;
48596;SDS011;34382;43.160;24.148;2023-05-29T03:31:58;10.87;;;4.93;;
48596;SDS011;34382;43.160;24.148;2023-05-29T03:33:31;10.65;;;4.78;;
48596;SDS011;34382;43.160;24.148;2023-05-29T03:35:04;8.68;;;4.55;;
48596;SDS011;34382;43.160;24.148;2023-05-29T03:36:36;9.45;;;4.90;;
48596;SDS011;34382;43.160;24.148;2023-05-29T03:38:09;9.80;;;4.95;;
48596;SDS011;34382;43.160;24.148;2023-05-29T03:39:42;10.98;;;4.82;;
48596;SDS011;34382;43.160;24.148;2023-05-29T03:41:14;9.82;;;4.82;;
48596;SDS011;34382;43.160;24.148;2023-05-29T03:42:47;12.30;;;5.00;;
48596;SDS011;34382;43.160;24.148;2023-05-29T03:44:20;9.57;;;4.47;;
48596;SDS011;34382;43.160;24.148;2023-05-29T03:45:53;10.55;;;4.97;;
48596;SDS011;34382;43.160;24.148;2023-05-29T03:47:25;9.77;;;4.63;;
48596;SDS011;34382;43.160;24.148;2023-05-29T03:48:58;8.25;;;4.32;;
48596;SDS011;34382;43.160;24.148;2023-05-29T03:50:30;8.25;;;4.32;;
48596;SDS011;34382;43.160;24.148;2023-05-29T03:52:03;8.23;;;4.07;;
48596;SDS011;34382;43.160;24.148;2023-05-29T03:53:36;8.52;;;4.38;;
48596;SDS011;34382;43.160;24.148;2023-05-29T03:55:10;9.88;;;4.38;;
48596;SDS011;34382;43.160;24.148;2023-05-29T03:56:46;8.57;;;4.25;;
48596;SDS011;34382;43.160;24.148;2023-05-29T03:58:19;9.75;;;4.82;;
48596;SDS011;34382;43.160;24.148;2023-05-29T03:59:52;9.05;;;4.00;;
48596;SDS011;34382;43.160;24.148;2023-05-29T04:01:24;10.95;;;4.57;;
48596;SDS011;34382;43.160;24.148;2023-05-29T04:02:57;8.10;;;4.40;;
48596;SDS011;34382;43.160;24.148;2023-05-29T04:04:30;7.93;;;4.00;;
48596;SDS011;34382;43.160;24.148;2023-05-29T04:06:03;10.68;;;4.50;;
48596;SDS011;34382;43.160;24.148;2023-05-29T04:07:36;9.05;;;4.25;;
48596;SDS011;34382;43.160;24.148;2023-05-29T04:09:09;9.38;;;4.63;;
48596;SDS011;34382;43.160;24.148;2023-05-29T04:10:42;9.63;;;4.10;;
48596;SDS011;34382;43.160;24.148;2023-05-29T04:12:15;10.48;;;4.80;;
48596;SDS011;34382;43.160;24.148;2023-05-29T04:13:48;9.15;;;4.15;;
48596;SDS011;34382;43.160;24.148;2023-05-29T04:15:21;8.02;;;3.90;;
48596;SDS011;34382;43.160;24.148;2023-05-29T04:16:53;8.80;;;4.40;;
48596;SDS011;34382;43.160;24.148;2023-05-29T04:18:26;8.95;;;4.35;;
48596;SDS011;34382;43.160;24.148;2023-05-29T04:19:58;7.97;;;4.13;;
48596;SDS011;34382;43.160;24.148;2023-05-29T04:21:34;11.10;;;4.22;;
48596;SDS011;34382;43.160;24.148;2023-05-29T04:23:07;8.77;;;4.30;;
48596;SDS011;34382;43.160;24.148;2023-05-29T04:24:40;9.23;;;4.38;;
48596;SDS011;34382;43.160;24.148;2023-05-29T04:26:13;9.35;;;4.13;;
48596;SDS011;34382;43.160;24.148;2023-05-29T04:27:46;8.88;;;3.65;;
48596;SDS011;34382;43.160;24.148;2023-05-29T04:29:22;8.32;;;4.07;;
48596;SDS011;34382;43.160;24.148;2023-05-29T04:30:54;8.30;;;4.18;;
48596;SDS011;34382;43.160;24.148;2023-05-29T04:32:28;11.98;;;4.43;;
48596;SDS011;34382;43.160;24.148;2023-05-29T04:34:01;10.85;;;4.70;;
48596;SDS011;34382;43.160;24.148;2023-05-29T04:37:08;13.45;;;4.90;;
48596;SDS011;34382;43.160;24.148;2023-05-29T04:38:41;11.02;;;4.70;;
48596;SDS011;34382;43.160;24.148;2023-05-29T04:40:14;9.55;;;4.50;;
48596;SDS011;34382;43.160;24.148;2023-05-29T04:41:49;9.38;;;4.80;;
48596;SDS011;34382;43.160;24.148;2023-05-29T04:43:23;9.45;;;5.05;;
48596;SDS011;34382;43.160;24.148;2023-05-29T04:44:58;11.95;;;6.15;;
48596;SDS011;34382;43.160;24.148;2023-05-29T04:46:31;12.00;;;5.80;;
48596;SDS011;34382;43.160;24.148;2023-05-29T04:48:04;12.43;;;7.35;;
48596;SDS011;34382;43.160;24.148;2023-05-29T04:49:37;15.48;;;8.23;;
48596;SDS011;34382;43.160;24.148;2023-05-29T04:52:43;13.88;;;6.50;;
48596;SDS011;34382;43.160;24.148;2023-05-29T04:54:16;10.88;;;6.00;;
48596;SDS011;34382;43.160;24.148;2023-05-29T04:55:48;10.75;;;5.43;;
48596;SDS011;34382;43.160;24.148;2023-05-29T04:57:21;11.43;;;5.28;;
48596;SDS011;34382;43.160;24.148;2023-05-29T04:58:54;10.68;;;5.47;;
48596;SDS011;34382;43.160;24.148;2023-05-29T05:00:27;11.55;;;5.80;;
48596;SDS011;34382;43.160;24.148;2023-05-29T05:02:00;9.13;;;5.10;;
48596;SDS011;34382;43.160;24.148;2023-05-29T05:05:05;9.23;;;5.13;;
48596;SDS011;34382;43.160;24.148;2023-05-29T05:08:11;9.50;;;5.25;;
48596;SDS011;34382;43.160;24.148;2023-05-29T05:09:44;10.60;;;5.13;;
48596;SDS011;34382;43.160;24.148;2023-05-29T05:11:17;9.27;;;4.43;;
48596;SDS011;34382;43.160;24.148;2023-05-29T05:12:50;10.43;;;5.00;;
48596;SDS011;34382;43.160;24.148;2023-05-29T05:14:23;11.23;;;5.22;;
48596;SDS011;34382;43.160;24.148;2023-05-29T05:15:55;9.55;;;5.03;;
48596;SDS011;34382;43.160;24.148;2023-05-29T05:17:28;9.50;;;4.65;;
48596;SDS011;34382;43.160;24.148;2023-05-29T05:19:00;10.93;;;4.80;;
48596;SDS011;34382;43.160;24.148;2023-05-29T05:20:33;9.80;;;4.93;;
48596;SDS011;34382;43.160;24.148;2023-05-29T05:22:05;8.57;;;4.80;;
48596;SDS011;34382;43.160;24.148;2023-05-29T05:23:38;8.85;;;4.53;;
48596;SDS011;34382;43.160;24.148;2023-05-29T05:25:13;9.77;;;4.90;;
48596;SDS011;34382;43.160;24.148;2023-05-29T05:26:46;10.27;;;5.15;;
48596;SDS011;34382;43.160;24.148;2023-05-29T05:28:18;7.70;;;4.67;;
48596;SDS011;34382;43.160;24.148;2023-05-29T05:29:51;8.73;;;4.95;;
48596;SDS011;34382;43.160;24.148;2023-05-29T05:31:24;10.10;;;5.23;;
48596;SDS011;34382;43.160;24.148;2023-05-29T05:32:57;9.45;;;4.55;;
48596;SDS011;34382;43.160;24.148;2023-05-29T05:34:30;13.18;;;5.82;;
48596;SDS011;34382;43.160;24.148;2023-05-29T05:36:03;10.10;;;4.60;;
48596;SDS011;34382;43.160;24.148;2023-05-29T05:37:35;9.73;;;5.30;;
48596;SDS011;34382;43.160;24.148;2023-05-29T05:39:08;9.60;;;5.03;;
48596;SDS011;34382;43.160;24.148;2023-05-29T05:40:41;9.65;;;5.20;;
48596;SDS011;34382;43.160;24.148;2023-05-29T05:42:17;9.43;;;5.30;;
48596;SDS011;34382;43.160;24.148;2023-05-29T05:43:49;9.60;;;5.13;;
48596;SDS011;34382;43.160;24.148;2023-05-29T05:45:22;13.77;;;5.32;;
48596;SDS011;34382;43.160;24.148;2023-05-29T05:46:55;9.98;;;5.32;;
48596;SDS011;34382;43.160;24.148;2023-05-29T05:48:28;8.45;;;5.18;;
48596;SDS011;34382;43.160;24.148;2023-05-29T05:50:00;9.65;;;5.40;;
48596;SDS011;34382;43.160;24.148;2023-05-29T05:51:33;10.50;;;5.50;;
48596;SDS011;34382;43.160;24.148;2023-05-29T05:53:05;10.02;;;4.97;;
48596;SDS011;34382;43.160;24.148;2023-05-29T05:54:38;10.60;;;6.05;;
48596;SDS011;34382;43.160;24.148;2023-05-29T05:56:11;9.20;;;5.40;;
48596;SDS011;34382;43.160;24.148;2023-05-29T05:57:43;9.45;;;5.22;;
48596;SDS011;34382;43.160;24.148;2023-05-29T05:59:16;9.55;;;5.65;;
48596;SDS011;34382;43.160;24.148;2023-05-29T06:00:49;11.27;;;5.60;;
48596;SDS011;34382;43.160;24.148;2023-05-29T06:02:24;10.95;;;6.25;;
48596;SDS011;34382;43.160;24.148;2023-05-29T06:03:58;10.25;;;6.65;;
48596;SDS011;34382;43.160;24.148;2023-05-29T06:05:31;10.63;;;6.00;;
48596;SDS011;34382;43.160;24.148;2023-05-29T06:07:08;10.27;;;6.25;;
48596;SDS011;34382;43.160;24.148;2023-05-29T06:08:41;10.30;;;5.93;;
48596;SDS011;34382;43.160;24.148;2023-05-29T06:10:14;12.18;;;6.13;;
48596;SDS011;34382;43.160;24.148;2023-05-29T06:11:46;9.32;;;5.82;;
48596;SDS011;34382;43.160;24.148;2023-05-29T06:13:19;10.30;;;6.32;;
48596;SDS011;34382;43.160;24.148;2023-05-29T06:14:52;10.13;;;6.07;;
48596;SDS011;34382;43.160;24.148;2023-05-29T06:16:25;12.18;;;6.07;;
48596;SDS011;34382;43.160;24.148;2023-05-29T06:17:57;9.70;;;5.53;;
48596;SDS011;34382;43.160;24.148;2023-05-29T06:19:30;12.18;;;6.25;;
48596;SDS011;34382;43.160;24.148;2023-05-29T06:21:03;10.73;;;6.00;;
48596;SDS011;34382;43.160;24.148;2023-05-29T06:22:37;9.85;;;5.93;;
48596;SDS011;34382;43.160;24.148;2023-05-29T06:24:10;11.68;;;6.47;;
48596;SDS011;34382;43.160;24.148;2023-05-29T06:25:42;10.77;;;6.05;;
48596;SDS011;34382;43.160;24.148;2023-05-29T06:27:15;11.32;;;6.63;;
48596;SDS011;34382;43.160;24.148;2023-05-29T06:28:48;11.60;;;6.90;;
48596;SDS011;34382;43.160;24.148;2023-05-29T06:30:20;11.43;;;6.60;;
48596;SDS011;34382;43.160;24.148;2023-05-29T06:31:53;11.43;;;6.85;;
48596;SDS011;34382;43.160;24.148;2023-05-29T06:33:26;11.95;;;7.07;;
48596;SDS011;34382;43.160;24.148;2023-05-29T06:34:58;12.02;;;7.55;;
48596;SDS011;34382;43.160;24.148;2023-05-29T06:36:31;13.70;;;7.18;;
48596;SDS011;34382;43.160;24.148;2023-05-29T06:38:04;12.13;;;6.78;;
48596;SDS011;34382;43.160;24.148;2023-05-29T06:39:37;12.68;;;7.00;;
48596;SDS011;34382;43.160;24.148;2023-05-29T06:41:14;11.32;;;6.60;;
48596;SDS011;34382;43.160;24.148;2023-05-29T06:42:46;13.70;;;6.78;;
48596;SDS011;34382;43.160;24.148;2023-05-29T06:44:19;13.43;;;7.18;;
48596;SDS011;34382;43.160;24.148;2023-05-29T06:45:52;12.25;;;7.25;;
48596;SDS011;34382;43.160;24.148;2023-05-29T06:47:25;12.00;;;6.80;;
48596;SDS011;34382;43.160;24.148;2023-05-29T06:48:57;12.00;;;6.72;;
48596;SDS011;34382;43.160;24.148;2023-05-29T06:50:31;11.95;;;6.90;;
48596;SDS011;34382;43.160;24.148;2023-05-29T06:52:03;11.38;;;6.80;;
48596;SDS011;34382;43.160;24.148;2023-05-29T06:53:37;12.52;;;7.30;;
48596;SDS011;34382;43.160;24.148;2023-05-29T06:55:10;13.05;;;7.68;;
48596;SDS011;34382;43.160;24.148;2023-05-29T06:56:43;14.10;;;7.90;;
48596;SDS011;34382;43.160;24.148;2023-05-29T06:58:25;12.07;;;7.60;;
48596;SDS011;34382;43.160;24.148;2023-05-29T06:59:58;11.90;;;7.43;;
48596;SDS011;34382;43.160;24.148;2023-05-29T07:01:31;12.23;;;6.85;;
48596;SDS011;34382;43.160;24.148;2023-05-29T07:03:04;12.18;;;6.93;;
48596;SDS011;34382;43.160;24.148;2023-05-29T07:04:37;13.27;;;7.25;;
48596;SDS011;34382;43.160;24.148;2023-05-29T07:06:09;11.50;;;7.05;;
48596;SDS011;34382;43.160;24.148;2023-05-29T07:07:42;11.45;;;6.65;;
48596;SDS011;34382;43.160;24.148;2023-05-29T07:09:14;12.63;;;7.80;;
48596;SDS011;34382;43.160;24.148;2023-05-29T07:10:47;14.75;;;7.82;;
48596;SDS011;34382;43.160;24.148;2023-05-29T07:12:23;12.95;;;7.65;;
48596;SDS011;34382;43.160;24.148;2023-05-29T07:13:56;12.95;;;8.13;;
48596;SDS011;34382;43.160;24.148;2023-05-29T07:15:29;12.90;;;7.22;;
48596;SDS011;34382;43.160;24.148;2023-05-29T07:17:01;12.57;;;7.80;;
48596;SDS011;34382;43.160;24.148;2023-05-29T07:20:14;14.77;;;8.32;;
48596;SDS011;34382;43.160;24.148;2023-05-29T07:21:48;12.77;;;7.45;;
48596;SDS011;34382;43.160;24.148;2023-05-29T07:23:20;13.07;;;7.60;;
48596;SDS011;34382;43.160;24.148;2023-05-29T07:24:53;13.32;;;7.88;;
48596;SDS011;34382;43.160;24.148;2023-05-29T07:26:25;13.23;;;7.90;;
48596;SDS011;34382;43.160;24.148;2023-05-29T07:27:58;12.70;;;7.10;;
48596;SDS011;34382;43.160;24.148;2023-05-29T07:29:51;13.25;;;7.97;;
48596;SDS011;34382;43.160;24.148;2023-05-29T07:31:23;14.27;;;7.40;;
48596;SDS011;34382;43.160;24.148;2023-05-29T07:32:56;13.48;;;7.90;;
48596;SDS011;34382;43.160;24.148;2023-05-29T07:34:29;11.80;;;7.80;;
48596;SDS011;34382;43.160;24.148;2023-05-29T07:36:02;14.05;;;9.00;;
48596;SDS011;34382;43.160;24.148;2023-05-29T07:37:35;12.23;;;7.95;;
48596;SDS011;34382;43.160;24.148;2023-05-29T07:39:08;11.50;;;7.15;;
48596;SDS011;34382;43.160;24.148;2023-05-29T07:40:41;12.60;;;7.55;;
48596;SDS011;34382;43.160;24.148;2023-05-29T07:42:13;12.52;;;7.93;;
48596;SDS011;34382;43.160;24.148;2023-05-29T07:43:46;12.68;;;7.68;;
48596;SDS011;34382;43.160;24.148;2023-05-29T07:45:23;12.48;;;7.72;;
48596;SDS011;34382;43.160;24.148;2023-05-29T07:46:56;13.40;;;7.95;;
48596;SDS011;34382;43.160;24.148;2023-05-29T07:50:01;12.57;;;7.60;;
48596;SDS011;34382;43.160;24.148;2023-05-29T07:51:34;14.68;;;7.25;;
48596;SDS011;34382;43.160;24.148;2023-05-29T07:53:07;14.50;;;7.78;;
48596;SDS011;34382;43.160;24.148;2023-05-29T07:54:40;12.88;;;8.18;;
48596;SDS011;34382;43.160;24.148;2023-05-29T07:56:13;14.70;;;8.63;;
48596;SDS011;34382;43.160;24.148;2023-05-29T07:57:45;13.05;;;8.50;;
48596;SDS011;34382;43.160;24.148;2023-05-29T07:59:18;12.27;;;7.93;;
48596;SDS011;34382;43.160;24.148;2023-05-29T08:00:51;13.80;;;7.75;;
48596;SDS011;34382;43.160;24.148;2023-05-29T08:03:58;13.23;;;7.80;;
48596;SDS011;34382;43.160;24.148;2023-05-29T08:05:31;13.00;;;8.32;;
48596;SDS011;34382;43.160;24.148;2023-05-29T08:07:04;13.00;;;8.20;;
48596;SDS011;34382;43.160;24.148;2023-05-29T08:08:37;12.25;;;7.70;;
48596;SDS011;34382;43.160;24.148;2023-05-29T08:10:10;14.60;;;9.35;;
48596;SDS011;34382;43.160;24.148;2023-05-29T08:11:45;14.02;;;8.70;;
48596;SDS011;34382;43.160;24.148;2023-05-29T08:13:19;13.25;;;7.85;;
48596;SDS011;34382;43.160;24.148;2023-05-29T08:14:51;13.15;;;7.32;;
48596;SDS011;34382;43.160;24.148;2023-05-29T08:16:24;13.55;;;8.02;;
48596;SDS011;34382;43.160;24.148;2023-05-29T08:17:59;13.30;;;7.88;;
48596;SDS011;34382;43.160;24.148;2023-05-29T08:19:32;12.75;;;7.82;;
48596;SDS011;34382;43.160;24.148;2023-05-29T08:21:05;13.32;;;7.97;;
48596;SDS011;34382;43.160;24.148;2023-05-29T08:22:39;15.43;;;8.45;;
48596;SDS011;34382;43.160;24.148;2023-05-29T08:24:26;13.70;;;8.07;;
48596;SDS011;34382;43.160;24.148;2023-05-29T08:27:34;14.38;;;8.80;;
48596;SDS011;34382;43.160;24.148;2023-05-29T08:30:40;13.50;;;9.07;;
48596;SDS011;34382;43.160;24.148;2023-05-29T08:32:13;15.02;;;9.40;;
48596;SDS011;34382;43.160;24.148;2023-05-29T08:33:46;13.38;;;8.15;;
48596;SDS011;34382;43.160;24.148;2023-05-29T08:35:18;17.33;;;9.80;;
48596;SDS011;34382;43.160;24.148;2023-05-29T08:36:51;14.93;;;9.07;;
48596;SDS011;34382;43.160;24.148;2023-05-29T08:38:24;14.18;;;9.52;;
48596;SDS011;34382;43.160;24.148;2023-05-29T08:39:58;14.70;;;9.63;;
48596;SDS011;34382;43.160;24.148;2023-05-29T08:41:37;14.25;;;8.50;;
48596;SDS011;34382;43.160;24.148;2023-05-29T08:44:50;17.33;;;10.35;;
48596;SDS011;34382;43.160;24.148;2023-05-29T08:46:26;13.35;;;9.25;;
48596;SDS011;34382;43.160;24.148;2023-05-29T08:49:52;14.63;;;9.00;;
48596;SDS011;34382;43.160;24.148;2023-05-29T08:51:27;15.40;;;10.32;;
48596;SDS011;34382;43.160;24.148;2023-05-29T08:53:03;13.68;;;9.45;;
48596;SDS011;34382;43.160;24.148;2023-05-29T08:54:38;14.90;;;9.30;;
48596;SDS011;34382;43.160;24.148;2023-05-29T08:56:11;15.25;;;9.20;;
48596;SDS011;34382;43.160;24.148;2023-05-29T08:58:00;15.20;;;10.07;;
48596;SDS011;34382;43.160;24.148;2023-05-29T08:59:33;15.93;;;10.07;;
48596;SDS011;34382;43.160;24.148;2023-05-29T09:01:07;13.65;;;8.15;;
48596;SDS011;34382;43.160;24.148;2023-05-29T09:02:40;13.88;;;9.30;;
48596;SDS011;34382;43.160;24.148;2023-05-29T09:04:13;15.35;;;10.38;;
48596;SDS011;34382;43.160;24.148;2023-05-29T09:05:47;13.15;;;8.82;;
48596;SDS011;34382;43.160;24.148;2023-05-29T09:07:20;14.10;;;8.82;;
48596;SDS011;34382;43.160;24.148;2023-05-29T09:08:53;13.77;;;8.73;;
48596;SDS011;34382;43.160;24.148;2023-05-29T09:10:26;14.40;;;8.93;;
48596;SDS011;34382;43.160;24.148;2023-05-29T09:11:59;15.52;;;9.27;;
48596;SDS011;34382;43.160;24.148;2023-05-29T09:13:32;16.15;;;9.20;;
48596;SDS011;34382;43.160;24.148;2023-05-29T09:15:16;16.50;;;9.32;;
48596;SDS011;34382;43.160;24.148;2023-05-29T09:16:53;15.55;;;9.63;;
48596;SDS011;34382;43.160;24.148;2023-05-29T09:18:30;13.10;;;8.20;;
48596;SDS011;34382;43.160;24.148;2023-05-29T09:20:03;11.85;;;7.75;;
48596;SDS011;34382;43.160;24.148;2023-05-29T09:21:47;13.18;;;8.32;;
48596;SDS011;34382;43.160;24.148;2023-05-29T09:23:20;13.27;;;7.25;;
48596;SDS011;34382;43.160;24.148;2023-05-29T09:24:53;12.57;;;8.43;;
48596;SDS011;34382;43.160;24.148;2023-05-29T09:26:26;12.23;;;8.55;;
48596;SDS011;34382;43.160;24.148;2023-05-29T09:28:01;13.98;;;8.30;;
48596;SDS011;34382;43.160;24.148;2023-05-29T09:29:38;15.85;;;7.78;;
48596;SDS011;34382;43.160;24.148;2023-05-29T09:31:15;11.15;;;7.13;;
48596;SDS011;34382;43.160;24.148;2023-05-29T09:32:53;11.45;;;7.22;;
48596;SDS011;34382;43.160;24.148;2023-05-29T09:34:26;11.45;;;6.80;;
48596;SDS011;34382;43.160;24.148;2023-05-29T09:35:59;11.23;;;7.13;;
48596;SDS011;34382;43.160;24.148;2023-05-29T09:37:32;13.60;;;7.55;;
48596;SDS011;34382;43.160;24.148;2023-05-29T09:39:06;12.40;;;7.40;;
48596;SDS011;34382;43.160;24.148;2023-05-29T09:40:48;13.55;;;7.70;;
48596;SDS011;34382;43.160;24.148;2023-05-29T09:42:21;14.50;;;7.65;;
48596;SDS011;34382;43.160;24.148;2023-05-29T09:43:56;14.00;;;8.07;;